Time;durP1;ratioP1;P1;durP2;ratioP2;P2;SDS_P1;SDS_P2;PMS_P1;PMS_P2;Temp;Humidity;BMP_temperature;BMP_pressure;BME280_temperature;BME280_humidity;BME280_pressure;Samples;Min_cycle;Max_cycle;Signal;HPM_P1;HPM_P2
2022/02/17 00:01:33;;;;;;;;;;;7.90;97.50;;;;;;5087925;28;19912;-74
2022/02/17 00:03:58;;;;;;;;;;;7.90;97.30;;;;;;5087971;28;20442;-73
2022/02/17 00:06:24;;;;;;;;;;;7.90;97.30;;;;;;5086605;28;19915;-71
2022/02/17 00:08:49;;;;;;;;;;;7.90;97.30;;;;;;5088087;28;19916;-73
2022/02/17 00:11:15;;;;;;;;;;;7.90;97.60;;;;;;5087927;28;20393;-73
2022/02/17 00:13:41;;;;;;;;;;;7.90;97.40;;;;;;5087932;28;19916;-72
2022/02/17 00:16:06;;;;;;;;;;;7.90;97.40;;;;;;5087773;28;19938;-74
2022/02/17 00:18:32;;;;;;;;;;;7.90;97.30;;;;;;5087849;28;19916;-72
2022/02/17 00:20:58;;;;;;;;;;;7.90;97.30;;;;;;5087961;28;20142;-71
2022/02/17 00:23:24;;;;;;;;;;;7.90;97.30;;;;;;5088173;28;19908;-71
2022/02/17 00:25:49;;;;;;;;;;;7.90;97.20;;;;;;5088077;28;19912;-73
2022/02/17 00:28:15;;;;;;;;;;;7.90;97.20;;;;;;5087816;28;19924;-72
2022/02/17 00:30:40;;;;;;;;;;;7.80;97.10;;;;;;5087604;28;19958;-72
2022/02/17 00:33:06;;;;;;;;;;;7.80;97.10;;;;;;5091558;28;19965;-73
2022/02/17 00:35:33;;;;;;;;;;;7.80;97.10;;;;;;5091794;28;19998;-72
2022/02/17 00:37:58;;;;;;;;;;;7.80;97.20;;;;;;5091917;28;19966;-73
2022/02/17 00:40:24;;;;;;;;;;;7.90;97.30;;;;;;5091974;28;20008;-74
2022/02/17 00:42:50;;;;;;;;;;;8.00;97.20;;;;;;5091801;28;19920;-71
2022/02/17 00:45:15;;;;;;;;;;;8.10;97.10;;;;;;5091755;28;20046;-73
2022/02/17 00:47:41;;;;;;;;;;;8.10;96.90;;;;;;5091712;28;19912;-72
2022/02/17 00:50:06;;;;;;;;;;;8.10;96.90;;;;;;5090357;28;19912;-73
2022/02/17 00:52:32;;;;;;;;;;;8.10;96.80;;;;;;5091723;28;19916;-73
2022/02/17 00:54:58;;;;;;;;;;;8.10;96.80;;;;;;5091502;28;19975;-73
2022/02/17 00:57:24;;;;;;;;;;;8.00;96.80;;;;;;5091465;28;19912;-72
2022/02/17 00:59:49;;;;;;;;;;;8.00;96.70;;;;;;5091440;28;19916;-72
2022/02/17 01:02:15;;;;;;;;;;;8.00;96.80;;;;;;5091540;28;20040;-71
2022/02/17 01:04:40;;;;;;;;;;;7.90;96.80;;;;;;5091856;28;19918;-75
2022/02/17 01:07:06;;;;;;;;;;;7.90;96.80;;;;;;5091139;28;20007;-74
2022/02/17 01:09:32;;;;;;;;;;;7.90;96.90;;;;;;5091120;28;19909;-72
2022/02/17 01:11:57;;;;;;;;;;;7.90;97.00;;;;;;5091244;28;20015;-73
2022/02/17 01:14:23;;;;;;;;;;;7.80;97.10;;;;;;5089620;28;20019;-72
2022/02/17 01:16:48;;;;;;;;;;;7.80;97.10;;;;;;5089756;28;19912;-71
2022/02/17 01:19:14;;;;;;;;;;;7.70;97.20;;;;;;5091148;28;19961;-73
2022/02/17 01:21:40;;;;;;;;;;;7.70;97.40;;;;;;5090084;28;20431;-71
2022/02/17 01:24:05;;;;;;;;;;;7.70;97.50;;;;;;5091066;28;19938;-72
2022/02/17 01:26:31;;;;;;;;;;;7.60;97.60;;;;;;5091285;28;19916;-73
2022/02/17 01:28:56;;;;;;;;;;;7.60;97.60;;;;;;5091270;28;19912;-72
2022/02/17 01:31:22;;;;;;;;;;;7.60;97.70;;;;;;5089718;28;20413;-73
2022/02/17 01:33:47;;;;;;;;;;;7.60;97.70;;;;;;5089444;28;19920;-71
2022/02/17 01:36:13;;;;;;;;;;;7.60;97.90;;;;;;5090803;28;19912;-73
2022/02/17 01:38:40;;;;;;;;;;;7.60;97.90;;;;;;5090810;28;19937;-72
2022/02/17 01:41:06;;;;;;;;;;;7.60;97.90;;;;;;5090720;28;20348;-73
2022/02/17 01:43:33;;;;;;;;;;;7.50;97.90;;;;;;5090482;28;19908;-72
2022/02/17 01:45:59;;;;;;;;;;;7.50;98.00;;;;;;5090700;28;19920;-72
2022/02/17 01:48:24;;;;;;;;;;;7.50;98.00;;;;;;5090548;28;19908;-73
2022/02/17 01:50:50;;;;;;;;;;;7.50;98.00;;;;;;5090521;28;19916;-72
2022/02/17 01:53:16;;;;;;;;;;;7.40;98.00;;;;;;5090391;28;19955;-73
2022/02/17 01:55:43;;;;;;;;;;;7.40;98.10;;;;;;5090345;28;19923;-72
2022/02/17 01:58:09;;;;;;;;;;;7.40;98.10;;;;;;5090486;28;19911;-72
2022/02/17 02:00:35;;;;;;;;;;;7.40;98.10;;;;;;5090371;28;20426;-71
2022/02/17 02:03:01;;;;;;;;;;;7.30;98.10;;;;;;5090401;28;20262;-73
2022/02/17 02:05:26;;;;;;;;;;;7.30;98.10;;;;;;5090167;28;19918;-71
2022/02/17 02:07:52;;;;;;;;;;;7.30;98.10;;;;;;5088931;28;19912;-72
2022/02/17 02:10:17;;;;;;;;;;;7.30;98.10;;;;;;5090245;28;19920;-72
2022/02/17 02:12:43;;;;;;;;;;;7.20;98.00;;;;;;5088872;28;20426;-73
2022/02/17 02:15:10;;;;;;;;;;;7.20;98.00;;;;;;5089969;28;19912;-71
2022/02/17 02:17:38;;;;;;;;;;;7.20;98.00;;;;;;5089980;28;19953;-73
2022/02/17 02:20:04;;;;;;;;;;;7.10;97.90;;;;;;5089990;28;20389;-72
2022/02/17 02:22:30;;;;;;;;;;;7.10;97.90;;;;;;5089757;28;19912;-73
2022/02/17 02:24:59;;;;;;;;;;;7.10;97.90;;;;;;5089856;28;19974;-73
2022/02/17 02:27:25;;;;;;;;;;;7.10;97.90;;;;;;5089785;28;19916;-73
2022/02/17 02:29:50;;;;;;;;;;;7.00;97.80;;;;;;5089876;28;19925;-74
2022/02/17 02:32:16;;;;;;;;;;;7.00;97.80;;;;;;5088314;28;19928;-72
2022/02/17 02:34:42;;;;;;;;;;;7.00;97.80;;;;;;5089587;28;20011;-72
2022/02/17 02:37:07;;;;;;;;;;;6.90;97.70;;;;;;5089535;28;19914;-73
2022/02/17 02:39:33;;;;;;;;;;;6.90;97.70;;;;;;5089596;28;20380;-74
2022/02/17 02:41:59;;;;;;;;;;;6.90;97.70;;;;;;5089590;28;19915;-73
2022/02/17 02:44:25;;;;;;;;;;;6.90;97.70;;;;;;5089497;28;19912;-73
2022/02/17 02:46:50;;;;;;;;;;;6.90;97.70;;;;;;5087999;28;19919;-73
2022/02/17 02:49:16;;;;;;;;;;;6.90;97.70;;;;;;5088206;28;19965;-75
2022/02/17 02:51:41;;;;;;;;;;;6.80;97.70;;;;;;5088040;28;20324;-74
2022/02/17 02:54:07;;;;;;;;;;;6.80;97.70;;;;;;5088652;28;20267;-73
2022/02/17 02:56:33;;;;;;;;;;;6.80;97.70;;;;;;5089242;28;20016;-73
2022/02/17 02:58:59;;;;;;;;;;;6.80;97.70;;;;;;5089168;28;20384;-73
2022/02/17 03:01:25;;;;;;;;;;;6.80;97.80;;;;;;5089168;28;19998;-72
2022/02/17 03:03:50;;;;;;;;;;;6.70;97.80;;;;;;5087753;28;19912;-73
2022/02/17 03:06:17;;;;;;;;;;;6.80;97.90;;;;;;5089013;28;19915;-72
2022/02/17 03:08:42;;;;;;;;;;;6.70;97.90;;;;;;5089143;28;19915;-74
2022/02/17 03:11:08;;;;;;;;;;;6.70;97.90;;;;;;5089000;28;19912;-74
2022/02/17 03:13:34;;;;;;;;;;;6.70;97.90;;;;;;5088895;28;20294;-74
2022/02/17 03:15:59;;;;;;;;;;;6.70;97.90;;;;;;5088892;28;19912;-73
2022/02/17 03:18:25;;;;;;;;;;;6.70;98.00;;;;;;5088905;28;20244;-74
2022/02/17 03:20:50;;;;;;;;;;;6.70;98.00;;;;;;5088979;28;19912;-72
2022/02/17 03:23:16;;;;;;;;;;;6.70;98.10;;;;;;5088892;28;19912;-72
2022/02/17 03:25:42;;;;;;;;;;;6.80;98.30;;;;;;5088747;28;20351;-74
2022/02/17 03:28:07;;;;;;;;;;;6.90;98.40;;;;;;5087509;28;19914;-74
2022/02/17 03:30:35;;;;;;;;;;;7.00;98.30;;;;;;5088482;28;20399;-73
2022/02/17 03:33:01;;;;;;;;;;;7.10;98.20;;;;;;5088586;28;19916;-73
2022/02/17 03:35:26;;;;;;;;;;;7.10;98.00;;;;;;5088523;28;19914;-74
2022/02/17 03:37:52;;;;;;;;;;;7.10;97.80;;;;;;5088602;28;20006;-72
2022/02/17 03:40:17;;;;;;;;;;;7.10;97.80;;;;;;5088547;28;19928;-72
2022/02/17 03:42:43;;;;;;;;;;;7.10;97.80;;;;;;5088531;28;19912;-74
2022/02/17 03:45:09;;;;;;;;;;;7.10;98.00;;;;;;5088379;28;20366;-74
2022/02/17 03:47:35;;;;;;;;;;;7.10;98.00;;;;;;5088415;28;19908;-72
2022/02/17 03:50:01;;;;;;;;;;;7.30;97.70;;;;;;5088559;28;19915;-72
2022/02/17 03:52:28;;;;;;;;;;;7.40;97.40;;;;;;5088334;28;19972;-73
2022/02/17 03:54:54;;;;;;;;;;;7.40;97.20;;;;;;5088229;28;20027;-72
2022/02/17 03:57:19;;;;;;;;;;;7.40;97.00;;;;;;5086897;28;20342;-74
2022/02/17 03:59:45;;;;;;;;;;;7.50;96.80;;;;;;5088116;28;19912;-72
2022/02/17 04:02:11;;;;;;;;;;;7.50;96.50;;;;;;5088299;28;19912;-73
2022/02/17 04:04:36;;;;;;;;;;;7.40;96.30;;;;;;5088217;28;19939;-72
2022/02/17 04:07:03;;;;;;;;;;;7.30;96.10;;;;;;5088019;28;19919;-73
2022/02/17 04:09:28;;;;;;;;;;;7.10;95.90;;;;;;5088038;28;19912;-73
2022/02/17 04:11:54;;;;;;;;;;;7.00;95.90;;;;;;5086735;28;20002;-73
2022/02/17 04:14:19;;;;;;;;;;;6.80;96.10;;;;;;5087911;28;20016;-72
2022/02/17 04:16:45;;;;;;;;;;;6.70;96.20;;;;;;5086711;28;19908;-73
2022/02/17 04:19:11;;;;;;;;;;;6.60;96.20;;;;;;5088006;28;19912;-73
2022/02/17 04:21:36;;;;;;;;;;;6.50;96.20;;;;;;5088035;28;19908;-74
2022/02/17 04:24:02;;;;;;;;;;;6.40;96.30;;;;;;5087993;28;19974;-73
2022/02/17 04:26:28;;;;;;;;;;;6.30;96.40;;;;;;5087917;28;19916;-72
2022/02/17 04:28:55;;;;;;;;;;;6.20;96.40;;;;;;5087887;28;19912;-74
2022/02/17 04:31:21;;;;;;;;;;;6.10;96.60;;;;;;5087795;28;20003;-72
2022/02/17 04:33:46;;;;;;;;;;;6.10;96.70;;;;;;5087819;28;20350;-72
2022/02/17 04:36:12;;;;;;;;;;;6.00;96.90;;;;;;5087778;28;19927;-72
2022/02/17 04:38:38;;;;;;;;;;;6.00;96.80;;;;;;5086446;28;20336;-72
2022/02/17 04:43:47;;;;;;;;;;;5.90;96.90;;;;;;5087945;28;19915;-74
2022/02/17 04:46:13;;;;;;;;;;;5.80;97.00;;;;;;5087782;28;19987;-72
2022/02/17 04:48:39;;;;;;;;;;;5.80;97.10;;;;;;5086440;28;19938;-74
2022/02/17 04:51:05;;;;;;;;;;;5.70;97.10;;;;;;5087790;28;19908;-73
2022/02/17 04:53:31;;;;;;;;;;;5.70;97.20;;;;;;5087665;28;20422;-73
2022/02/17 04:55:56;;;;;;;;;;;5.70;97.30;;;;;;5087596;28;20290;-73
2022/02/17 04:58:25;;;;;;;;;;;5.60;97.30;;;;;;5087672;28;19913;-72
2022/02/17 05:00:51;;;;;;;;;;;5.60;97.60;;;;;;5087845;28;19935;-73
2022/02/17 05:03:16;;;;;;;;;;;5.60;97.40;;;;;;5087475;28;19908;-72
2022/02/17 05:05:42;;;;;;;;;;;5.60;97.40;;;;;;5087521;28;19912;-72
2022/02/17 05:08:08;;;;;;;;;;;5.60;97.40;;;;;;5087625;28;19920;-74
2022/02/17 05:10:35;;;;;;;;;;;5.60;97.40;;;;;;5086229;28;19912;-74
2022/02/17 05:13:01;;;;;;;;;;;5.60;97.40;;;;;;5087509;28;19916;-73
2022/02/17 05:15:26;;;;;;;;;;;5.50;97.40;;;;;;5087624;28;20413;-72
2022/02/17 05:17:52;;;;;;;;;;;5.50;97.40;;;;;;5089080;28;19913;-73
2022/02/17 05:20:18;;;;;;;;;;;5.50;97.30;;;;;;5091179;28;19920;-73
2022/02/17 05:22:44;;;;;;;;;;;5.50;97.30;;;;;;5091194;28;19999;-74
2022/02/17 05:25:10;;;;;;;;;;;5.50;97.30;;;;;;5089725;28;19916;-73
2022/02/17 05:27:36;;;;;;;;;;;5.50;97.30;;;;;;5091061;28;19912;-72
2022/02/17 05:30:02;;;;;;;;;;;5.50;97.30;;;;;;5090975;28;19940;-73
2022/02/17 05:32:28;;;;;;;;;;;5.50;97.30;;;;;;5089658;28;20322;-75
2022/02/17 05:34:55;;;;;;;;;;;5.50;97.30;;;;;;5090169;28;20467;-72
2022/02/17 05:37:21;;;;;;;;;;;5.50;97.30;;;;;;5090820;28;19912;-72
2022/02/17 05:39:46;;;;;;;;;;;5.50;97.30;;;;;;5090810;28;20366;-73
2022/02/17 05:42:12;;;;;;;;;;;5.50;97.20;;;;;;5090946;28;19908;-74
2022/02/17 05:44:37;;;;;;;;;;;5.50;97.20;;;;;;5090572;28;20453;-75
2022/02/17 05:47:03;;;;;;;;;;;5.50;97.20;;;;;;5089069;28;20324;-73
2022/02/17 05:49:29;;;;;;;;;;;5.50;97.20;;;;;;5090391;28;20006;-73
2022/02/17 05:51:54;;;;;;;;;;;5.50;97.10;;;;;;5090439;28;19916;-73
2022/02/17 05:54:20;;;;;;;;;;;5.50;97.10;;;;;;5090394;28;20313;-73
2022/02/17 05:56:45;;;;;;;;;;;5.50;97.10;;;;;;5088930;28;19916;-73
2022/02/17 05:59:11;;;;;;;;;;;5.50;97.10;;;;;;5090404;28;19912;-74
2022/02/17 06:01:36;;;;;;;;;;;5.50;97.10;;;;;;5090375;28;19912;-73
2022/02/17 06:04:02;;;;;;;;;;;5.50;97.10;;;;;;5090432;28;20386;-74
2022/02/17 06:06:27;;;;;;;;;;;5.50;97.00;;;;;;5090218;28;20131;-73
2022/02/17 06:08:53;;;;;;;;;;;5.50;97.00;;;;;;5090205;28;20020;-74
2022/02/17 06:11:19;;;;;;;;;;;5.50;97.00;;;;;;5090232;28;19916;-72
2022/02/17 06:13:44;;;;;;;;;;;5.50;97.00;;;;;;5090109;28;19912;-73
2022/02/17 06:16:10;;;;;;;;;;;5.50;97.10;;;;;;5089875;28;20384;-75
2022/02/17 06:18:35;;;;;;;;;;;5.50;97.10;;;;;;5090112;28;19987;-71
2022/02/17 06:21:01;;;;;;;;;;;5.50;97.10;;;;;;5089036;28;20269;-72
2022/02/17 06:23:26;;;;;;;;;;;5.50;97.10;;;;;;5089857;28;19912;-72
2022/02/17 06:25:53;;;;;;;;;;;5.50;97.20;;;;;;5089904;28;20001;-74
2022/02/17 06:28:18;;;;;;;;;;;5.50;97.30;;;;;;5089641;28;19920;-72
2022/02/17 06:30:45;;;;;;;;;;;5.40;97.50;;;;;;5088717;28;19941;-72
2022/02/17 06:33:11;;;;;;;;;;;5.50;97.40;;;;;;5089733;28;20006;-73
2022/02/17 06:35:38;;;;;;;;;;;5.50;97.40;;;;;;5088559;28;19912;-74
2022/02/17 06:38:04;;;;;;;;;;;5.50;97.50;;;;;;5089752;28;19915;-73
2022/02/17 06:40:30;;;;;;;;;;;5.50;97.50;;;;;;5088429;28;20426;-73
2022/02/17 06:42:56;;;;;;;;;;;5.60;97.60;;;;;;5089848;28;19908;-74
2022/02/17 06:45:22;;;;;;;;;;;5.60;97.70;;;;;;5088350;28;19916;-72
2022/02/17 06:47:47;;;;;;;;;;;5.60;97.70;;;;;;5087752;28;19916;-74
2022/02/17 06:50:15;;;;;;;;;;;5.70;97.70;;;;;;5089414;28;19916;-73
2022/02/17 06:52:41;;;;;;;;;;;5.70;97.80;;;;;;5089342;28;19912;-72
2022/02/17 06:55:06;;;;;;;;;;;5.70;97.80;;;;;;5089292;28;19973;-72
2022/02/17 06:57:32;;;;;;;;;;;5.80;97.90;;;;;;5089235;28;19912;-72
2022/02/17 07:00:02;;;;;;;;;;;5.80;97.80;;;;;;5089022;28;20262;-73
2022/02/17 07:02:28;;;;;;;;;;;5.80;97.80;;;;;;5087584;28;19989;-73
2022/02/17 07:04:54;;;;;;;;;;;5.80;97.70;;;;;;5088754;28;19994;-74
2022/02/17 07:07:20;;;;;;;;;;;5.80;97.80;;;;;;5088812;28;19908;-74
2022/02/17 07:09:46;;;;;;;;;;;5.80;97.80;;;;;;5088831;28;19912;-74
2022/02/17 07:12:12;;;;;;;;;;;5.80;97.80;;;;;;5089093;28;20386;-73
2022/02/17 07:14:38;;;;;;;;;;;5.80;97.80;;;;;;5088756;28;19947;-73
2022/02/17 07:17:04;;;;;;;;;;;5.80;97.90;;;;;;5088695;28;20358;-73
2022/02/17 07:19:29;;;;;;;;;;;5.80;97.80;;;;;;5089140;28;19940;-73
2022/02/17 07:21:55;;;;;;;;;;;5.70;97.70;;;;;;5088650;28;19962;-71
2022/02/17 07:24:21;;;;;;;;;;;5.70;97.70;;;;;;5088801;28;20331;-71
2022/02/17 07:26:46;;;;;;;;;;;5.70;97.70;;;;;;5087661;28;20277;-73
2022/02/17 07:29:13;;;;;;;;;;;5.60;97.70;;;;;;5088354;28;20416;-73
2022/02/17 07:31:38;;;;;;;;;;;5.60;97.70;;;;;;5088330;28;19923;-72
2022/02/17 07:34:04;;;;;;;;;;;5.50;97.70;;;;;;5088303;28;20400;-72
2022/02/17 07:36:30;;;;;;;;;;;5.50;97.70;;;;;;5088501;28;19908;-73
2022/02/17 07:38:55;;;;;;;;;;;5.40;97.80;;;;;;5088200;28;19961;-72
2022/02/17 07:41:21;;;;;;;;;;;5.50;97.90;;;;;;5088080;28;19912;-71
2022/02/17 07:43:47;;;;;;;;;;;5.40;97.90;;;;;;5088091;28;19954;-72
2022/02/17 07:46:12;;;;;;;;;;;5.40;97.90;;;;;;5088469;28;19908;-73
2022/02/17 07:48:38;;;;;;;;;;;5.50;98.00;;;;;;5088312;28;20422;-72
2022/02/17 07:51:04;;;;;;;;;;;5.50;98.00;;;;;;5088229;28;19961;-74
2022/02/17 07:53:31;;;;;;;;;;;5.60;98.10;;;;;;5087591;28;19920;-75
2022/02/17 07:55:57;;;;;;;;;;;5.60;98.00;;;;;;5087666;28;20500;-72
2022/02/17 07:58:23;;;;;;;;;;;5.70;98.10;;;;;;5086149;28;19931;-72
2022/02/17 08:00:48;;;;;;;;;;;5.80;98.10;;;;;;5088395;28;19912;-72
2022/02/17 08:03:14;;;;;;;;;;;5.90;98.00;;;;;;5087760;28;20373;-70
2022/02/17 08:05:40;;;;;;;;;;;5.90;97.90;;;;;;5086301;28;19909;-72
2022/02/17 08:08:09;;;;;;;;;;;6.00;97.90;;;;;;5087040;28;19916;-71
2022/02/17 08:10:35;;;;;;;;;;;6.10;97.90;;;;;;5087445;28;19955;-72
2022/02/17 08:13:01;;;;;;;;;;;6.20;97.90;;;;;;5086976;28;19951;-74
2022/02/17 08:15:27;;;;;;;;;;;6.30;97.90;;;;;;5087470;28;19912;-73
2022/02/17 08:17:52;;;;;;;;;;;6.40;97.80;;;;;;5087549;28;19915;-73
2022/02/17 08:20:18;;;;;;;;;;;6.40;97.70;;;;;;5087362;28;20384;-73
2022/02/17 08:22:56;;;;;;;;;;;6.40;97.60;;;;;;5087606;28;20377;-73
2022/02/17 08:25:22;;;;;;;;;;;6.50;97.80;;;;;;5086265;28;19912;-72
2022/02/17 08:27:48;;;;;;;;;;;6.50;97.60;;;;;;5087467;28;19938;-73
2022/02/17 08:30:14;;;;;;;;;;;6.50;97.60;;;;;;5087556;28;19913;-74
2022/02/17 08:32:39;;;;;;;;;;;6.60;97.70;;;;;;5086129;28;19916;-74
2022/02/17 08:35:06;;;;;;;;;;;6.70;97.60;;;;;;5087321;28;19931;-73
2022/02/17 08:37:31;;;;;;;;;;;6.80;97.50;;;;;;5087350;28;19979;-75
2022/02/17 08:39:57;;;;;;;;;;;6.80;97.50;;;;;;5087307;28;19938;-75
2022/02/17 08:42:23;;;;;;;;;;;6.90;97.40;;;;;;5087261;28;20306;-74
2022/02/17 08:44:48;;;;;;;;;;;6.90;97.40;;;;;;5087426;28;20115;-73
2022/02/17 08:47:15;;;;;;;;;;;7.00;97.30;;;;;;5086902;28;20013;-72
2022/02/17 08:49:42;;;;;;;;;;;7.00;97.30;;;;;;5087311;28;19916;-74
2022/02/17 08:52:07;;;;;;;;;;;7.10;97.40;;;;;;5087265;28;19915;-71
2022/02/17 08:54:33;;;;;;;;;;;7.20;97.50;;;;;;5090305;28;19920;-74
2022/02/17 08:56:59;;;;;;;;;;;7.30;97.60;;;;;;5091338;28;19923;-74
2022/02/17 08:59:24;;;;;;;;;;;7.50;97.50;;;;;;5091863;28;20307;-73
2022/02/17 09:01:51;;;;;;;;;;;7.70;97.40;;;;;;5089691;28;20008;-71
2022/02/17 09:04:17;;;;;;;;;;;7.80;97.10;;;;;;5091046;28;19919;-73
2022/02/17 09:06:42;;;;;;;;;;;7.90;97.00;;;;;;5091385;28;20247;-73
2022/02/17 09:09:08;;;;;;;;;;;7.90;96.90;;;;;;5091512;28;19912;-72
2022/02/17 09:11:33;;;;;;;;;;;7.90;96.80;;;;;;5077504;28;19940;-73
2022/02/17 09:13:59;;;;;;;;;;;7.90;96.80;;;;;;5080848;28;19916;-73
2022/02/17 09:16:25;;;;;;;;;;;8.00;96.70;;;;;;5080311;28;19953;-73
2022/02/17 09:18:50;;;;;;;;;;;7.90;96.50;;;;;;5082084;28;19915;-70
2022/02/17 09:21:16;;;;;;;;;;;7.90;96.50;;;;;;5078887;28;19912;-72
2022/02/17 09:23:42;;;;;;;;;;;8.00;96.50;;;;;;5080679;28;19917;-73
2022/02/17 09:26:08;;;;;;;;;;;8.00;96.30;;;;;;5081856;28;20016;-71
2022/02/17 09:28:34;;;;;;;;;;;7.90;96.10;;;;;;5081579;28;20339;-72
2022/02/17 09:31:00;;;;;;;;;;;7.90;96.00;;;;;;5078205;28;20006;-72
2022/02/17 09:33:26;;;;;;;;;;;7.90;96.00;;;;;;5079717;28;20019;-71
2022/02/17 09:35:53;;;;;;;;;;;7.90;95.70;;;;;;5080685;28;19943;-72
2022/02/17 09:38:19;;;;;;;;;;;7.80;95.40;;;;;;5080259;28;20271;-71
2022/02/17 09:40:46;;;;;;;;;;;7.80;95.40;;;;;;5079353;28;20343;-70
2022/02/17 09:43:12;;;;;;;;;;;7.80;95.50;;;;;;5083814;28;19995;-71
2022/02/17 09:45:48;;;;;;;;;;;7.90;95.50;;;;;;5078311;28;20265;-72
2022/02/17 09:48:15;;;;;;;;;;;7.90;95.60;;;;;;5081411;28;19913;-73
2022/02/17 09:50:41;;;;;;;;;;;7.90;95.70;;;;;;5081137;28;20397;-73
2022/02/17 09:53:07;;;;;;;;;;;7.90;95.70;;;;;;5078981;28;19908;-72
2022/02/17 09:55:32;;;;;;;;;;;7.90;96.00;;;;;;5080455;28;19913;-72
2022/02/17 09:57:58;;;;;;;;;;;8.00;95.80;;;;;;5080603;28;19975;-72
2022/02/17 10:00:24;;;;;;;;;;;8.00;95.70;;;;;;5081368;28;20314;-69
2022/02/17 10:02:49;;;;;;;;;;;8.00;95.70;;;;;;5079611;28;19913;-72
2022/02/17 10:05:16;;;;;;;;;;;7.90;95.40;;;;;;5081834;28;19929;-72
2022/02/17 10:07:42;;;;;;;;;;;7.80;95.30;;;;;;5078978;28;19925;-72
2022/02/17 10:10:10;;;;;;;;;;;7.70;95.30;;;;;;5078663;28;19944;-73
2022/02/17 10:12:53;;;;;;;;;;;7.60;95.40;;;;;;5081633;28;19994;-73
2022/02/17 10:15:24;;;;;;;;;;;7.50;95.40;;;;;;5078900;28;20012;-75
2022/02/17 10:18:00;;;;;;;;;;;7.30;95.20;;;;;;5088621;28;19919;-75
2022/02/17 10:20:26;;;;;;;;;;;7.10;95.40;;;;;;5090789;28;19944;-73
2022/02/17 10:22:52;;;;;;;;;;;6.90;95.50;;;;;;5090648;28;20378;-73
2022/02/17 10:25:19;;;;;;;;;;;6.80;95.70;;;;;;5090752;28;19918;-72
2022/02/17 10:27:45;;;;;;;;;;;6.80;95.90;;;;;;5090590;28;19961;-74
2022/02/17 10:30:38;;;;;;;;;;;6.70;95.90;;;;;;5089260;28;20355;-73
2022/02/17 10:33:07;;;;;;;;;;;6.70;96.00;;;;;;5087929;28;19963;-73
2022/02/17 10:35:32;;;;;;;;;;;6.70;96.00;;;;;;5089161;28;19920;-73
2022/02/17 10:38:07;;;;;;;;;;;6.70;96.10;;;;;;5088280;28;20311;-73
2022/02/17 10:40:34;;;;;;;;;;;6.80;96.10;;;;;;5088373;28;19912;-73
2022/02/17 10:43:04;;;;;;;;;;;6.80;96.10;;;;;;5088464;28;19915;-74
2022/02/17 10:45:30;;;;;;;;;;;6.80;96.20;;;;;;5090000;28;19919;-73
2022/02/17 10:48:14;;;;;;;;;;;6.80;96.20;;;;;;5090006;28;19912;-73
2022/02/17 10:50:40;;;;;;;;;;;6.90;96.30;;;;;;5087695;28;19908;-73
2022/02/17 10:53:16;;;;;;;;;;;6.90;96.20;;;;;;5089933;28;19954;-73
2022/02/17 10:55:50;;;;;;;;;;;7.00;96.30;;;;;;5087092;28;19916;-74
2022/02/17 10:58:16;;;;;;;;;;;7.10;96.40;;;;;;5087046;28;19999;-73
2022/02/17 11:00:43;;;;;;;;;;;7.10;96.50;;;;;;5087808;28;19912;-74
2022/02/17 11:03:09;;;;;;;;;;;7.20;96.40;;;;;;5079054;28;20227;-74
2022/02/17 11:05:37;;;;;;;;;;;7.30;96.50;;;;;;5076489;28;20005;-73
2022/02/17 11:08:04;;;;;;;;;;;7.40;96.50;;;;;;5080541;28;19997;-75
2022/02/17 11:10:30;;;;;;;;;;;7.60;97.10;;;;;;5084242;28;20303;-74
2022/02/17 11:12:58;;;;;;;;;;;8.40;98.50;;;;;;5078119;28;20035;-73
2022/02/17 11:15:23;;;;;;;;;;;9.90;99.80;;;;;;5080038;28;19916;-74
2022/02/17 11:17:49;;;;;;;;;;;10.80;98.30;;;;;;5078494;28;20243;-74
2022/02/17 11:20:18;;;;;;;;;;;11.30;97.60;;;;;;5080635;28;19942;-75
2022/02/17 11:22:44;;;;;;;;;;;11.50;96.70;;;;;;5079139;28;19949;-74
2022/02/17 11:25:13;;;;;;;;;;;11.30;96.20;;;;;;5080158;28;20290;-69
2022/02/17 11:27:58;;;;;;;;;;;11.20;96.10;;;;;;5077424;28;19958;-73
2022/02/17 11:30:27;;;;;;;;;;;11.00;95.90;;;;;;5081327;28;19935;-72
2022/02/17 11:33:11;;;;;;;;;;;10.90;95.80;;;;;;5079389;28;20295;-73
2022/02/17 11:35:37;;;;;;;;;;;10.90;96.00;;;;;;5079599;28;19917;-73
2022/02/17 11:38:22;;;;;;;;;;;11.10;96.50;;;;;;5078592;28;20004;-73
2022/02/17 11:40:59;;;;;;;;;;;11.50;95.90;;;;;;5079153;28;19915;-74
2022/02/17 11:43:30;;;;;;;;;;;11.30;95.00;;;;;;5078959;28;19961;-74
2022/02/17 11:45:56;;;;;;;;;;;11.10;94.90;;;;;;5074938;28;20351;-74
2022/02/17 11:48:32;;;;;;;;;;;10.80;95.10;;;;;;5076359;28;19919;-74
2022/02/17 11:51:09;;;;;;;;;;;10.50;95.30;;;;;;5076106;28;20450;-73
2022/02/17 11:53:36;;;;;;;;;;;10.30;95.40;;;;;;5079847;28;19920;-74
2022/02/17 11:56:13;;;;;;;;;;;10.20;95.40;;;;;;5080056;28;19995;-73
2022/02/17 11:58:43;;;;;;;;;;;10.10;95.50;;;;;;5076386;28;19908;-73
2022/02/17 12:01:35;;;;;;;;;;;10.20;96.30;;;;;;5078165;28;19916;-73
2022/02/17 12:04:14;;;;;;;;;;;10.50;96.40;;;;;;5078378;28;19909;-73
2022/02/17 12:06:42;;;;;;;;;;;10.90;96.70;;;;;;5083009;28;19926;-73
2022/02/17 12:09:08;;;;;;;;;;;11.10;96.40;;;;;;5085284;28;19913;-73
2022/02/17 12:11:37;;;;;;;;;;;11.00;96.00;;;;;;5078100;28;20314;-74
2022/02/17 12:14:05;;;;;;;;;;;10.90;95.80;;;;;;5078784;28;19951;-74
2022/02/17 12:16:38;;;;;;;;;;;10.70;95.90;;;;;;5080301;28;19956;-73
2022/02/17 12:19:07;;;;;;;;;;;10.60;95.90;;;;;;5079766;28;19922;-74
2022/02/17 12:21:37;;;;;;;;;;;10.50;96.00;;;;;;5076740;28;19926;-74
2022/02/17 12:24:03;;;;;;;;;;;10.50;96.00;;;;;;5078291;28;19928;-73
2022/02/17 12:26:41;;;;;;;;;;;10.40;96.00;;;;;;5073923;28;19917;-73
2022/02/17 12:29:37;;;;;;;;;;;10.40;95.90;;;;;;5079649;28;19912;-74
2022/02/17 12:32:04;;;;;;;;;;;10.30;95.80;;;;;;5079665;28;19951;-73
2022/02/17 12:34:31;;;;;;;;;;;10.20;95.80;;;;;;5079289;28;19960;-74
2022/02/17 12:36:57;;;;;;;;;;;10.10;95.80;;;;;;5081646;28;19991;-75
2022/02/17 12:39:30;;;;;;;;;;;10.30;96.80;;;;;;5082796;28;19950;-74
2022/02/17 12:42:02;;;;;;;;;;;11.10;97.60;;;;;;5081794;28;19914;-73
2022/02/17 12:44:29;;;;;;;;;;;12.10;97.60;;;;;;5079009;28;19912;-70
2022/02/17 12:46:58;;;;;;;;;;;12.90;96.30;;;;;;5080299;28;20327;-72
2022/02/17 12:49:25;;;;;;;;;;;13.30;95.50;;;;;;5061643;28;19991;-73
2022/02/17 12:51:51;;;;;;;;;;;13.50;94.90;;;;;;5082577;28;19945;-73
2022/02/17 12:54:17;;;;;;;;;;;13.50;94.40;;;;;;5081036;28;19936;-71
2022/02/17 12:56:43;;;;;;;;;;;13.30;94.70;;;;;;5082596;28;19912;-73
2022/02/17 12:59:12;;;;;;;;;;;13.40;95.20;;;;;;5080978;28;19908;-71
2022/02/17 13:01:42;;;;;;;;;;;13.70;95.90;;;;;;5078517;28;19954;-72
2022/02/17 13:04:08;;;;;;;;;;;13.90;96.10;;;;;;5079336;28;19929;-72
2022/02/17 13:06:34;;;;;;;;;;;14.20;95.40;;;;;;5079358;28;19912;-74
2022/02/17 13:09:11;;;;;;;;;;;14.20;94.70;;;;;;5079299;28;19918;-73
2022/02/17 13:11:36;;;;;;;;;;;14.30;94.30;;;;;;5079638;28;19915;-72
2022/02/17 13:14:06;;;;;;;;;;;14.50;94.40;;;;;;5080927;28;19916;-73
2022/02/17 13:16:33;;;;;;;;;;;14.60;94.30;;;;;;5080058;28;20290;-72
2022/02/17 13:18:58;;;;;;;;;;;14.40;93.50;;;;;;5080345;28;19913;-72
2022/02/17 13:21:24;;;;;;;;;;;14.00;92.80;;;;;;5078740;28;19914;-73
2022/02/17 13:24:05;;;;;;;;;;;13.50;92.30;;;;;;5081890;28;20022;-72
2022/02/17 13:26:33;;;;;;;;;;;13.10;92.70;;;;;;5081698;28;19917;-73
2022/02/17 13:28:59;;;;;;;;;;;12.80;92.90;;;;;;5084045;28;20372;-72
2022/02/17 13:31:27;;;;;;;;;;;12.60;92.90;;;;;;5081106;28;19921;-72
2022/02/17 13:34:11;;;;;;;;;;;12.40;92.80;;;;;;5082336;28;19920;-74
2022/02/17 13:36:38;;;;;;;;;;;12.20;93.00;;;;;;5090511;28;19995;-73
2022/02/17 13:39:14;;;;;;;;;;;12.10;92.90;;;;;;5088024;28;19908;-72
2022/02/17 13:41:56;;;;;;;;;;;12.10;93.00;;;;;;5090072;28;19955;-73
2022/02/17 13:44:32;;;;;;;;;;;12.00;93.10;;;;;;5088098;28;20306;-71
2022/02/17 13:46:58;;;;;;;;;;;11.90;93.00;;;;;;5087434;28;20512;-72
2022/02/17 13:49:24;;;;;;;;;;;11.70;93.10;;;;;;5088897;28;19912;-72
2022/02/17 13:51:50;;;;;;;;;;;11.50;93.00;;;;;;5090255;28;19912;-73
2022/02/17 13:54:15;;;;;;;;;;;11.50;93.10;;;;;;5090369;28;19912;-72
2022/02/17 13:56:41;;;;;;;;;;;11.50;93.40;;;;;;5088363;28;19954;-73
2022/02/17 13:59:07;;;;;;;;;;;11.50;93.40;;;;;;5089827;28;20015;-72
2022/02/17 14:01:36;;;;;;;;;;;11.50;93.10;;;;;;5089678;28;20682;-73
2022/02/17 14:04:02;;;;;;;;;;;11.40;92.60;;;;;;5089090;28;19970;-72
2022/02/17 14:06:29;;;;;;;;;;;11.40;92.00;;;;;;5089431;28;19966;-73
2022/02/17 14:08:58;;;;;;;;;;;11.20;91.80;;;;;;5088430;28;19958;-72
2022/02/17 14:11:24;;;;;;;;;;;11.10;91.80;;;;;;5088418;28;19934;-73
2022/02/17 14:13:50;;;;;;;;;;;10.90;91.80;;;;;;5090179;28;20002;-73
2022/02/17 14:16:15;;;;;;;;;;;10.80;91.80;;;;;;5090244;28;19938;-73
2022/02/17 14:18:41;;;;;;;;;;;10.50;91.90;;;;;;5089943;28;20312;-72
2022/02/17 14:21:11;;;;;;;;;;;10.30;92.00;;;;;;5088538;28;20340;-73
2022/02/17 14:23:40;;;;;;;;;;;10.10;92.20;;;;;;5088492;28;19912;-73
2022/02/17 14:26:05;;;;;;;;;;;10.10;92.40;;;;;;5089219;28;19916;-72
2022/02/17 14:28:31;;;;;;;;;;;10.00;92.60;;;;;;5089466;28;19957;-72